Latest Observation

67 Stations

10 Minute Data
as of 5/8/26 10:34 PM PDT
Station Date Time Temp (°F) RH (%) Dew Pt (°F) Wind Spd (mph) Wind Dir (°) Wind Gust (mph) Wind Gst Dir (°) Latest Rain (In) Soil Moist (%) Soil Temp (°F) Daily Rain (In) Daily Min Temp (°F) Daily Max Temp (°F) Daily Max Wind (mph)
Hobart Mills 5/8/26 2230 48.3   5.4 74   1 40.4   5.0 2.2   0.3 WSW | 248 3.4   0.7 W | 262 0.00 - 32.0   0.0 0.03 28.9   8.9 70.6   1.0 8.6   0.4
Prosser Dam 5/8/26 2230 49.9   4.0 81   2 44.3   4.6 1.5   1.1 WNW | 291 2.2   1.9 WNW | 299 0.00 22.3   1.1 53.3   0.5 0.00 28.7   8.1 71.8   1.5 22.2   0.5
West Incline Village 5/8/26 2230 52.4   3.4 50   5 34.3   5.8 3.0   0.2 NNE | 30 4.0   0.4 NE | 39 0.00 32.6   0.8 46.6   0.5 0.00 42.5   2.2 64.9   0.3 14.8   4.2
Incline Village (Fairview Blvd) 5/8/26 2230 54.6   2.8 49   7 35.6   6.5 1.2   0.1 NE | 35 2.2   0.1 NE | 34 0.00 26.1   0.4 52.8   1.2 0.00 44.4   1.3 66.6   1.8 11.4   7.4
Incline Village (Diamond Peak) 5/8/26 2220 53.8   3.8 43   9 31.8   1.2 0.0   0.1 N | 0 0.0   3.2 N | 8 0.00 9.3   0.3 49.8   0.9 0.00 45.1   0.9 63.2   0.7 7.5   8.3
Incline Village (Mill Creek) 5/8/26 2230 51.3   3.1 55   7 35.6   0.0 1.4   1.3 ENE | 70 2.4   1.2 ENE | 66 0.00 11.0   0.2 47.0   0.7 0.00 41.1   3.9 67.1   2.1 15.5   0.9
Incline Village (Lakeshore Blvd) 5/8/26 2230 48.5   2.4 67   11 38.1   1.4 0.5   0.8 NE | 50 1.7   1.9 NE | 50 0.00 30.3   2.1 56.9   0.6 0.00 34.0   6.1 64.3   2.3 5.5   6.7
Glenbrook 5/8/26 2230 49.5   1.0 65   10 38.4   2.6 2.9   0.1 ESE | 118 4.3   0.2 ESE | 116 0.00 44.3   0.1 46.1   0.4 0.00 37.5   4.1 66.5   2.3 5.7   0.9
Zephyr Cove 5/8/26 2230 52.1   0.4 56   10 36.8   4.0 0.0   0.6 N | 0 0.0   2.9 NNW | 329 0.00 - 34.3   0.0 0.00 39.7   4.0 68.2   1.5 6.8   0.1
Kingsbury Grade 5/8/26 2230 48.5   0.1 61   9 35.8   3.5 0.6   0.6 NNE | 22 2.9   1.5 N | 10 0.00 6.1   2.7 58.1   1.3 0.00 36.4   4.9 69.2   0.8 13.7   2.7
South Daggett Pass (Ridge) 5/8/26 2230 52.7   4.8 53   19 36.1   3.3 1.9   2.5 W | 275 5.2   6.2 W | 272 0.00 6.7   0.1 49.6   0.9 0.00 41.0   4.1 62.6   0.8 16.9   5.6
Palomino Valley 5/8/26 2230 64.0   1.0 41   8 40.1   6.5 1.9   1.0 ENE | 74 7.9   1.2 ENE | 67 0.00 7.1   0.1 71.5   1.4 0.00 41.6   4.2 79.8   0.5 24.3   4.4
East Cold Springs 5/8/26 2230 63.5   5.5 44   1 41.1   5.4 8.6   5.4 WNW | 300 14.5   6.1 WNW | 296 0.00 1.8   0.1 60.4   0.2 0.00 45.0   4.7 74.2   0.8 22.6   2.2
Peavine 5/8/26 2230 57.9   0.8 48   17 38.1   10.1 3.0   8.2 NNE | 19 8.2   9.1 NNE | 32 0.00 - 53.4   0.0 0.00 45.3   6.9 70.7   1.0 24.1   1.2
West Verdi Peak 5/8/26 2230 54.7   0.5 53   6 38.1   3.8 3.0   1.0 NNW | 343 5.2   10.1 NNW | 344 0.00 19.7   1.2 56.7   0.5 0.00 43.7   3.9 71.6   1.4 19.6   4.1
West Verdi 5/8/26 2230 59.9   0.9 48   6 40.3   4.1 1.8   0.7 W | 274 3.7   1.7 NW | 313 0.00 8.0   0.1 66.9   1.0 0.00 42.6   7.2 76.0   1.1 20.2   5.0
South Verdi 5/8/26 2230 62.4   3.1 47   2 42.2   3.8 16.0   6.8 WSW | 248 19.2   8.7 WSW | 248 0.00 16.5   0.3 66.7   1.8 0.00 40.6   9.3 73.9   1.9 27.1   7.8
Northwest Reno 5/8/26 2230 66.8   4.6 36   1 39.0   4.7 15.9   10.8 NNW | 331 20.1   14.5 NW | 323 0.00 24.2   0.1 68.3   1.0 0.00 48.8   5.8 76.9   1.6 28.0   9.7
North Lawton 5/8/26 2230 63.9   2.4 41   5 39.8   5.3 7.1   5.7 WSW | 250 9.6   13.5 WSW | 243 0.00 - 60.4   21.3 0.00 47.2   5.5 77.0   1.3 22.0   7.3
West Reno (Mogul) 5/8/26 2230 62.6   2.6 46   32 41.7   27.1 8.3   3.3 WNW | 294 10.8   14.0 WNW | 298 0.00 36.6   0.6 63.0   1.0 0.00 47.4   3.5 77.2   1.8 17.3   13.0
Caughlin (Hunter Lake Trail) 9/16/25 0800 59.7   3.5 41   11 35.9   2.7 0.0   0.0 N | 0 0.0   0.0 ENE | 66 0.00 15.7   0.0 69.8   0.5 0.00 55.7   3.2 67.7   9.1 9.4   0.9
ArrowCreek 5/8/26 2230 62.5   2.5 37   8 35.9   7.9 4.9   2.8 S | 180 6.5   3.9 S | 171 0.00 - 32.0   0.0 0.00 46.0   5.6 77.0   0.8 26.0   2.5
Tracy 5/8/26 2230 70.4   2.9 30   0 37.9   2.7 8.2   4.4 WSW | 243 12.0   6.0 WSW | 237 0.00 8.1   0.0 69.2   1.2 0.00 51.5   4.1 81.2   1.5 24.0   10.7
Virginia Highlands 5/8/26 2230 60.7   3.0 38   3 34.7   4.7 0.5   5.0 NW | 312 3.7   4.1 NW | 325 0.00 8.1   0.1 58.2   1.2 0.00 49.4   3.9 72.8   0.8 19.6   0.6
Virginia City 5/8/26 2230 62.8   4.7 32   3 32.7   6.8 12.9   6.4 NNW | 348 16.9   5.0 N | 7 0.00 8.5   0.1 60.8   1.4 0.00 53.3   1.1 71.1   1.1 23.2   4.3
Six Mile Canyon 9/9/25 0630 60.2   9.6 37   6 33.7   4.8 4.1   2.5 W | 277 6.1   2.9 WNW | 286 0.00 12.5   0.0 75.5   0.7 0.00 57.9   7.6 64.4   1.9 7.0   3.9
Mt Rose Highway 4/30/26 0510 40.8   4.7 47   13 22.3   1.3 2.3   0.2 WSW | 243 4.8   2.1 WSW | 246 0.00 24.1   0.3 43.0   0.8 0.00 40.5   4.7 43.0   5.3 7.7   0.4
Pleasant Valley 5/8/26 2230 59.6   2.4 41   6 35.8   1.5 2.8   4.4 SW | 220 4.7   6.5 WSW | 248 0.00 2.8   0.0 67.0   1.5 0.00 40.9   6.9 76.9   1.6 19.6   6.0
New Washoe City 5/8/26 2230 58.8   1.9 38   3 33.6   0.1 4.1   0.9 NNE | 31 7.1   1.7 NE | 43 0.00 4.5   0.0 62.3   0.9 0.00 44.2   3.1 75.5   1.3 20.9   6.4
Franktown Creek 5/8/26 2230 55.9   7.4 44   22 34.5   10.0 0.0   2.3 N | 0 0.0   7.8 WNW | 303 0.00 11.2   0.0 58.2   1.1 0.00 43.2   3.3 75.7   2.1 18.5   8.4
Musgrove Creek 5/8/26 2230 61.5   3.0 33   6 32.0   1.7 0.0   2.7 N | 0 0.0   10.9 W | 272 0.00 41.7   3.2 54.6   0.7 0.00 52.6   1.5 72.7   1.4 15.2   5.3
East Carson 11/23/24 0110 28.6   28.4 - - 4.7   11.0 SW | 220 14.7   10.1 SW | 219 0.02 - 50.9   0.1 0.02 -25.9   79.1 42.9   14.6 16.0   10.7
Kings Canyon 5/8/26 2230 55.5   4.2 40   5 31.4   0.6 5.0   0.1 SSE | 162 7.2   2.7 SSE | 157 0.00 14.6   0.4 63.1   0.5 0.00 43.4   4.2 74.3   1.3 18.9   5.2
Carson City (Voltaire Canyon) 5/8/26 2230 67.8   5.6 26   10 31.6   3.5 3.0   1.5 W | 268 6.5   1.4 WSW | 240 0.00 2.8   0.0 63.0   1.5 0.00 52.0   2.1 75.6   1.4 25.2   0.9
Jacks Valley 5/8/26 2230 64.5   3.9 37   11 37.5   3.0 4.9   4.4 W | 268 8.6   10.8 W | 261 0.00 13.5   0.3 72.2   2.0 0.00 46.5   2.7 75.0   1.0 23.8   7.6
Genoa 5/8/26 2230 61.8   3.4 29   10 29.0   10.2 1.0   2.5 SSW | 209 2.4   10.1 SSW | 208 0.00 7.4   0.8 66.1   1.9 0.00 44.7   3.1 79.3   2.6 16.0   6.3
South Genoa (Walleys Hot Springs) 5/8/26 2230 62.7   0.4 34   9 34.2   5.8 0.0   4.6 N | 0 0.0   12.5 WNW | 286 0.00 14.1   0.1 66.1   1.4 0.00 40.3   4.0 77.8   0.0 28.8   5.7
SW Gardnerville (HWY 88) 5/8/26 2230 54.6   1.8 58   5 40.3   0.3 0.4   3.3 S | 178 2.4   4.2 SSW | 200 0.00 3.4   0.0 61.3   1.0 0.00 37.3   3.9 76.2   0.3 23.1   4.3
Sheridan 5/8/26 2230 59.6   0.5 37   3 33.1   2.5 3.8   3.1 SW | 220 6.0   2.4 WSW | 237 0.00 3.9   0.7 65.6   1.4 0.00 42.6   2.0 78.1   0.4 26.2   3.3
Ruhenstroth 5/8/26 2230 59.5   1.2 39   5 34.6   3.9 4.3   0.3 SE | 142 7.3   1.0 SE | 128 0.00 12.6   0.1 65.9   1.1 0.00 43.0   1.9 78.0   0.4 22.6   0.5
Double Spring 5/8/26 2230 54.4   1.2 40   14 30.6   6.3 4.5   0.2 N | 353 6.1   3.1 N | 5 0.00 31.5   0.1 63.8   2.0 0.00 38.8   0.8 73.8   1.7 32.0   5.1
North Topaz Lake 5/8/26 2230 66.5   4.2 28   8 32.5   2.5 10.7   1.2 WNW | 284 13.8   2.5 WNW | 292 0.00 9.6   0.1 67.0   2.1 0.00 56.6   2.1 76.3   1.2 28.2   5.1
Wild Oat Mountain 5/8/26 2230 62.4   4.4 40   5 37.8   1.0 1.5   5.8 WNW | 297 5.1   7.4 NW | 311 0.00 16.9   0.0 63.4   1.0 0.00 55.1   1.4 74.7   1.4 24.3   2.0
Smith Valley 5/8/26 2230 66.2   0.1 26   5 30.7   4.4 4.7   5.2 W | 261 6.5   12.9 W | 264 0.00 6.0   0.1 68.5   1.5 0.00 45.6   3.8 80.8   0.4 21.5   2.7
Pine Grove Mountain 5/8/26 2230 55.1   4.6 27   20 21.7   9.1 7.4   3.9 NNW | 337 11.0   4.6 NNW | 331 0.00 20.8   0.9 58.4   2.3 0.00 47.4   3.1 66.8   2.1 25.3   3.9
Paradise Hill 5/8/26 2230 61.9   4.1 23   1 23.3   2.5 4.3   2.2 SSW | 211 6.2   2.6 SW | 215 0.00 8.0   0.0 64.9   0.5 0.00 42.0   3.7 78.7   3.0 27.0   6.5
Winnemucca 5/8/26 2230 62.3   7.2 22   5 22.7   0.3 9.6   3.0 E | 97 11.7   2.4 E | 98 0.00 6.0   0.0 65.2   0.6 0.00 51.8   1.3 79.4   1.8 28.1   6.6
NE Elko 5/8/26 2230 59.7   4.4 26   1 24.8   2.9 4.5   4.5 NE | 52 6.6   6.6 ENE | 57 0.00 12.6   0.0 66.0   1.6 0.00 33.8   4.1 77.8   1.4 25.1   6.5
North Elko 5/8/26 2230 61.6   1.2 27   1 26.9   1.9 11.1   8.9 NW | 320 15.3   9.4 NNW | 329 0.00 28.6   0.1 62.5   1.8 0.00 47.0   2.1 75.0   0.4 26.1   8.0
South Elko 5/8/26 2230 62.5   2.7 25   4 26.4   2.4 0.3   6.2 NW | 304 1.2   6.3 NW | 304 0.00 18.6   0.0 64.0   1.7 0.00 52.8   2.5 - 26.0   5.5
Lamoille 1/28/26 1720 33.2   0.5 65   17 22.8   6.3 5.8   1.5 SSE | 166 7.7   1.9 SE | 139 0.00 12.2   0.0 33.4   0.1 0.02 23.5   2.0 36.5   5.9 25.6   17.4
Reid Gardner Sub 5/8/26 2230 80.7   1.5 16   2 31.1   4.0 0.4   1.5 SSE | 148 2.5   0.9 SE | 142 0.00 26.2   0.3 79.2   1.4 0.00 54.2   1.9 101.2   7.6 17.1   5.7
Corn Creek 5/8/26 2230 82.0   5.8 16   1 31.5   6.7 7.0   1.6 W | 275 10.9   4.3 WNW | 298 0.00 4.0   0.0 84.9   2.8 0.00 71.2   9.1 93.9   4.2 28.0   7.8
Lucky Strike 5/8/26 2230 72.9   1.2 15   2 22.1   3.5 13.3   12.2 SW | 228 15.9   12.8 SW | 218 0.00 4.7   0.1 78.3   2.3 0.00 69.2   12.1 82.9   5.4 35.3   15.5
Lower Angel Peak 5/8/26 2230 66.7   7.3 19   4 22.5   1.8 4.9   0.4 S | 171 10.7   3.2 SW | 219 0.00 10.0   0.2 62.6   2.4 0.00 56.8   10.8 78.5   6.2 28.9   10.2
Angel Peak 5/8/26 2230 57.5   1.6 22   1 18.5   0.8 7.4   10.2 WSW | 256 12.2   11.7 W | 260 0.00 4.2   0.7 61.0   2.5 0.00 56.9   10.5 73.8   10.4 33.0   6.8
Upper Kyle Canyon 5/8/26 2230 56.8   1.8 27   4 23.1   4.9 2.6   0.9 NNW | 331 6.8   1.6 NW | 312 0.00 13.2   0.2 61.7   2.2 0.00 48.2   4.1 69.8   3.3 22.1   5.1
Mt Charleston 5/8/26 2230 60.4   4.7 24   1 23.4   3.5 3.0   0.9 W | 270 6.7   1.9 WNW | 285 0.00 18.2   0.1 51.7   1.2 0.00 51.9   5.7 71.6   4.6 15.0   1.6
Mid Kyle Canyon 5/8/26 2230 61.9   3.5 26   3 26.2   5.7 9.9   0.6 WNW | 300 13.8   1.0 WNW | 290 0.00 7.1   0.0 66.5   2.6 0.00 56.4   7.5 78.0   5.3 32.0   11.8
Blue Diamond 5/8/26 2230 85.8   6.4 13   2 29.9   1.4 7.0   4.1 W | 266 16.3   8.9 WNW | 294 0.00 3.1   0.1 77.3   1.9 0.00 68.6   18.5 92.4   5.4 24.5   6.0
Artesian Sub 5/8/26 2230 91.7   7.1 13   3 33.3   0.9 2.4   2.3 W | 265 5.2   3.8 SW | 221 0.00 13.1   0.1 75.0   0.6 0.00 70.2   3.8 102.2   6.7 15.3   4.6
North Henderson 5/8/26 2230 92.0   7.1 11   5 30.6   3.5 5.6   1.8 SW | 229 11.2   6.0 SW | 216 0.00 9.5   0.8 82.1   1.6 0.00 72.9   7.6 101.9   7.4 19.8   7.4
Sandy Valley 5/8/26 2230 85.7   2.6 13   2 28.4   2.0 1.9   0.6 E | 82 4.6   1.5 E | 82 0.00 4.6   0.0 88.1   2.6 0.00 68.7   9.4 95.1   5.1 31.9   12.8
Searchlight 5/8/26 2230 76.6   8.6 20   2 32.0   9.7 6.2   3.1 NW | 325 8.1   2.0 NNW | 329 0.00 4.9   0.1 85.6   2.9 0.00 68.5   12.3 92.9   6.0 29.8   7.2
Laughlin 5/8/26 2230 95.9   8.1 12   0 35.9   5.7 5.1   2.9 SSE | 150 8.9   5.5 SE | 138 0.00 4.2   0.0 88.2   2.1 0.00 73.6   4.7 105.7   6.0 19.6   3.4
31Mission Hills 5/8/26 2230 88.6   5.2 11   1 28.0   1.0 5.2   4.6 SW | 233 8.4   3.7 SW | 232 0.00 4.0   0.1 92.6   3.0 0.00 74.2   6.2 97.6   6.4 28.4   10.6
32 Enterprise Sierra Cliffs 5/8/26 2230 85.2   4.9 11   1 24.2   1.1 8.4   1.9 SW | 230 12.2   0.5 WSW | 238 0.00 2.4   0.0 86.7   3.9 0.00 73.0   6.1 94.6   5.8 25.7   10.8
Max     95.9 81 44.3 16.0 - 20.1 - 0.00 44.3 92.6 0.03 74.2 105.7 35.3
Avg     63.7 36 32.8 4.6 - 7.4 - 0.00 13.2 63.6 - - - -
Min     48.3 11 18.5 0.0 - 0.0 - 0.00 1.8 32.0 0.00 28.7 62.6 5.5